createdAt,value
2018-04-19T00:00:58.255Z,0.00
2018-04-19T00:01:58.286Z,0.00
2018-04-19T00:02:58.113Z,0.00
2018-04-19T00:03:58.090Z,0.00
2018-04-19T00:04:57.937Z,0.00
2018-04-19T00:05:57.907Z,0.00
2018-04-19T00:06:57.785Z,0.00
2018-04-19T00:07:57.856Z,0.00
2018-04-19T00:08:57.627Z,0.00
2018-04-19T00:09:57.626Z,0.00
2018-04-19T00:10:57.487Z,0.00
2018-04-19T00:11:57.426Z,0.00
2018-04-19T00:12:57.347Z,0.00
2018-04-19T00:13:57.383Z,0.00
2018-04-19T00:14:57.166Z,0.00
2018-04-19T00:15:57.167Z,0.00
2018-04-19T00:16:57.017Z,0.00
2018-04-19T00:17:57.063Z,0.00
2018-04-19T00:18:56.880Z,0.00
2018-04-19T00:19:56.867Z,0.00
2018-04-19T00:20:56.711Z,0.00
2018-04-19T00:21:56.680Z,0.00
2018-04-19T00:22:56.547Z,0.00
2018-04-19T00:23:56.618Z,0.00
2018-04-19T00:24:56.384Z,0.00
2018-04-19T00:25:56.399Z,0.00
2018-04-19T00:26:56.243Z,0.00
2018-04-19T00:27:56.213Z,0.00
2018-04-19T00:28:56.100Z,0.00
2018-04-19T00:29:56.215Z,0.00
2018-04-19T00:30:55.924Z,0.00
2018-04-19T00:31:55.919Z,0.00
2018-04-19T00:32:55.780Z,0.00
2018-04-19T00:33:55.765Z,0.00
2018-04-19T00:34:55.627Z,0.00
2018-04-19T00:35:55.642Z,0.00
2018-04-19T00:36:55.456Z,0.00
2018-04-19T00:37:55.450Z,0.00
2018-04-19T00:38:55.324Z,0.00
2018-04-19T00:39:55.258Z,0.00
2018-04-19T00:40:55.151Z,0.00
2018-04-19T00:41:55.167Z,0.00
2018-04-19T00:42:54.997Z,0.00
2018-04-19T00:43:55.027Z,0.00
2018-04-19T00:44:54.847Z,0.00
2018-04-19T00:45:54.819Z,0.00
2018-04-19T00:46:54.686Z,0.00
2018-04-19T00:47:54.696Z,0.00
2018-04-19T00:48:54.541Z,0.00
2018-04-19T00:49:54.505Z,0.00
2018-04-19T00:50:54.401Z,0.00
2018-04-19T00:51:54.421Z,0.00
2018-04-19T00:52:54.330Z,0.00
2018-04-19T00:53:54.223Z,0.00
2018-04-19T00:54:54.094Z,0.00
2018-04-19T00:55:54.045Z,0.00
2018-04-19T00:56:53.914Z,0.00
2018-04-19T00:57:53.943Z,0.00
2018-04-19T00:58:53.764Z,0.00
2018-04-19T00:59:53.756Z,0.00
2018-04-19T01:00:53.628Z,0.00
2018-04-19T01:01:53.560Z,0.00
2018-04-19T01:02:53.459Z,0.00
2018-04-19T01:03:53.475Z,0.00
2018-04-19T01:04:53.300Z,0.00
2018-04-19T01:05:53.414Z,0.00
2018-04-19T01:06:53.132Z,0.00
2018-04-19T01:07:53.195Z,0.00
2018-04-19T01:08:53.590Z,0.00
2018-04-19T01:09:53.007Z,0.00
2018-04-19T01:10:52.884Z,0.00
2018-04-19T01:11:52.915Z,0.00
2018-04-19T01:12:52.674Z,0.00
2018-04-19T01:13:52.718Z,0.00
2018-04-19T01:14:52.519Z,0.00
2018-04-19T01:15:52.557Z,0.00
2018-04-19T01:16:52.371Z,0.00
2018-04-19T01:17:52.331Z,0.00
2018-04-19T01:18:52.209Z,0.00
2018-04-19T01:19:52.244Z,0.00
2018-04-19T01:20:52.083Z,0.00
2018-04-19T01:21:52.057Z,0.00
2018-04-19T01:22:51.898Z,0.00
2018-04-19T01:23:51.863Z,0.00
2018-04-19T01:24:51.749Z,0.00
2018-04-19T01:25:51.812Z,0.00
2018-04-19T01:26:51.590Z,0.00
2018-04-19T01:27:51.596Z,0.00
2018-04-19T01:28:51.449Z,0.00
2018-04-19T01:29:51.393Z,0.00
2018-04-19T01:30:51.316Z,0.00
2018-04-19T01:31:51.313Z,0.00
2018-04-19T01:32:51.151Z,0.00
2018-04-19T01:33:51.114Z,0.00
2018-04-19T01:34:50.962Z,0.00
2018-04-19T01:35:51.020Z,0.00
2018-04-19T01:36:50.822Z,0.00
2018-04-19T01:37:50.880Z,0.00
2018-04-19T01:38:50.663Z,0.00
2018-04-19T01:39:50.654Z,0.00
2018-04-19T01:40:50.527Z,0.00
2018-04-19T01:41:50.550Z,0.00
2018-04-19T01:42:50.367Z,0.00
2018-04-19T01:43:50.359Z,0.00
2018-04-19T01:44:50.209Z,0.00
2018-04-19T01:45:50.168Z,0.00
2018-04-19T01:46:50.048Z,0.00
2018-04-19T01:47:50.177Z,0.00
2018-04-19T01:48:49.908Z,0.00
2018-04-19T01:49:49.883Z,0.00
2018-04-19T01:50:49.731Z,0.00
2018-04-19T01:51:49.696Z,0.00
2018-04-19T01:52:49.575Z,0.00
2018-04-19T01:53:49.826Z,0.00
2018-04-19T01:54:49.422Z,0.00
2018-04-19T01:55:49.409Z,0.00
2018-04-19T01:56:50.037Z,0.00
2018-04-19T01:57:49.333Z,0.00
2018-04-19T01:58:49.131Z,0.00
2018-04-19T01:59:49.131Z,0.00
2018-04-19T02:00:48.965Z,0.00
2018-04-19T02:01:48.948Z,0.00
2018-04-19T02:02:48.807Z,0.00
2018-04-19T02:03:48.885Z,0.00
2018-04-19T02:04:48.652Z,0.00
2018-04-19T02:05:48.659Z,0.00
2018-04-19T02:06:48.498Z,0.00
2018-04-19T02:07:48.487Z,0.00
2018-04-19T02:08:48.340Z,0.00
2018-04-19T02:09:48.415Z,0.00
2018-04-19T02:10:49.106Z,0.00
2018-04-19T02:11:48.191Z,0.00
2018-04-19T02:12:48.045Z,0.00
2018-04-19T02:13:48.122Z,0.00
2018-04-19T02:14:47.909Z,0.00
2018-04-19T02:15:47.912Z,0.00
2018-04-19T02:16:47.733Z,0.00
2018-04-19T02:17:47.728Z,0.00
2018-04-19T02:18:47.563Z,0.00
2018-04-19T02:19:47.567Z,0.00
2018-04-19T02:20:47.414Z,0.00
2018-04-19T02:21:47.448Z,0.00
2018-04-19T02:22:47.248Z,0.00
2018-04-19T02:23:47.247Z,0.00
2018-04-19T02:24:47.123Z,0.00
2018-04-19T02:25:47.057Z,0.00
2018-04-19T02:26:46.952Z,0.00
2018-04-19T02:27:46.965Z,0.00
2018-04-19T02:28:46.787Z,0.00
2018-04-19T02:29:46.825Z,0.00
2018-04-19T02:30:46.640Z,0.00
2018-04-19T02:31:46.678Z,0.00
2018-04-19T02:32:46.481Z,0.00
2018-04-19T02:33:46.493Z,0.00
2018-04-19T02:34:46.357Z,0.00
2018-04-19T02:35:46.383Z,0.00
2018-04-19T02:36:46.179Z,0.00
2018-04-19T02:37:46.210Z,0.00
2018-04-19T02:38:46.006Z,0.00
2018-04-19T02:39:46.048Z,0.00
2018-04-19T02:40:45.889Z,0.00
2018-04-19T02:41:45.831Z,0.00
2018-04-19T02:42:45.704Z,0.00
2018-04-19T02:43:45.737Z,0.00
2018-04-19T02:44:45.548Z,0.00
2018-04-19T02:45:45.581Z,0.00
2018-04-19T02:46:45.476Z,0.00
2018-04-19T02:47:45.355Z,0.00
2018-04-19T02:48:45.247Z,0.00
2018-04-19T02:49:45.266Z,0.00
2018-04-19T02:50:45.089Z,0.00
2018-04-19T02:51:45.116Z,0.00
2018-04-19T02:52:44.932Z,0.00
2018-04-19T02:53:44.982Z,0.00
2018-04-19T02:54:44.783Z,0.00
2018-04-19T02:55:44.794Z,0.00
2018-04-19T02:56:44.644Z,0.00
2018-04-19T02:57:44.601Z,0.00
2018-04-19T02:58:44.467Z,0.00
2018-04-19T02:59:44.525Z,0.00
2018-04-19T03:00:44.321Z,0.00
2018-04-19T03:01:44.371Z,0.00
2018-04-19T03:02:44.166Z,0.00
2018-04-19T03:03:44.133Z,0.00
2018-04-19T03:04:44.005Z,0.00
2018-04-19T03:05:44.045Z,0.00
2018-04-19T03:06:43.865Z,0.00
2018-04-19T03:07:43.845Z,0.00
2018-04-19T03:08:43.690Z,0.00
2018-04-19T03:09:43.656Z,0.00
2018-04-19T03:10:43.527Z,0.00
2018-04-19T03:11:43.603Z,0.00
2018-04-19T03:12:43.409Z,0.00
2018-04-19T03:13:43.367Z,0.00
2018-04-19T03:14:43.219Z,0.00
2018-04-19T03:15:43.179Z,0.00
2018-04-19T03:16:43.057Z,0.00
2018-04-19T03:17:43.127Z,0.00
2018-04-19T03:18:42.915Z,0.00
2018-04-19T03:19:42.910Z,0.00
2018-04-19T03:20:42.766Z,0.00
2018-04-19T03:21:42.712Z,0.00
2018-04-19T03:22:42.626Z,0.00
2018-04-19T03:23:42.620Z,0.00
2018-04-19T03:24:42.443Z,0.00
2018-04-19T03:25:42.428Z,0.00
2018-04-19T03:26:42.290Z,0.00
2018-04-19T03:27:42.264Z,0.00
2018-04-19T03:28:42.232Z,0.00
2018-04-19T03:29:42.152Z,0.00
2018-04-19T03:30:41.984Z,0.00
2018-04-19T03:31:41.972Z,0.00
2018-04-19T03:32:41.827Z,0.00
2018-04-19T03:33:41.808Z,0.00
2018-04-19T03:34:41.682Z,0.00
2018-04-19T03:35:41.981Z,0.00
2018-04-19T03:36:41.501Z,0.00
2018-04-19T03:39:23.583Z,0.00
2018-04-19T03:40:23.590Z,0.00
2018-04-19T03:41:23.401Z,0.00
2018-04-19T03:42:23.396Z,0.00
2018-04-19T03:43:23.270Z,0.00
2018-04-19T03:44:23.301Z,0.00
2018-04-19T03:45:23.095Z,0.00
2018-04-19T03:46:23.132Z,0.00
2018-04-19T03:47:22.928Z,0.00
2018-04-19T03:48:22.956Z,0.00
2018-04-19T03:49:22.804Z,0.00
2018-04-19T03:50:22.829Z,0.00
2018-04-19T03:51:22.632Z,0.00
2018-04-19T03:52:22.649Z,0.00
2018-04-19T03:53:22.474Z,0.00
2018-04-19T03:54:22.486Z,0.00
2018-04-19T03:55:22.321Z,0.00
2018-04-19T03:58:04.566Z,0.00
2018-04-19T03:59:04.604Z,0.00
2018-04-19T04:00:04.425Z,4.00
2018-04-19T04:01:04.375Z,4.00
2018-04-19T04:02:04.271Z,0.00
2018-04-19T04:03:04.279Z,4.00
2018-04-19T04:04:04.128Z,4.00
2018-04-19T04:05:04.097Z,4.00
2018-04-19T04:06:03.944Z,4.00
2018-04-19T04:07:03.902Z,4.00
2018-04-19T04:08:03.787Z,8.00
2018-04-19T04:09:04.057Z,8.00
2018-04-19T04:10:03.627Z,12.00
2018-04-19T04:11:03.621Z,12.00
2018-04-19T04:12:03.470Z,16.00
2018-04-19T04:13:03.429Z,12.00
2018-04-19T04:14:03.395Z,16.00
2018-04-19T04:15:03.365Z,20.00
2018-04-19T04:16:03.156Z,24.00
2018-04-19T04:17:03.233Z,28.00
2018-04-19T04:18:03.011Z,28.00
2018-04-19T04:19:02.988Z,36.00
2018-04-19T04:20:02.844Z,40.00
2018-04-19T04:21:02.863Z,44.00
2018-04-19T04:22:02.690Z,48.00
2018-04-19T04:23:02.688Z,60.00
2018-04-19T04:24:02.560Z,64.00
2018-04-19T04:25:02.588Z,68.00
2018-04-19T04:26:02.394Z,76.00
2018-04-19T04:27:02.397Z,88.00
2018-04-19T04:28:02.224Z,96.00
2018-04-19T04:29:02.229Z,108.00
2018-04-19T04:30:02.073Z,116.00
2018-04-19T04:31:02.196Z,128.00
2018-04-19T04:32:01.929Z,140.00
2018-04-19T04:33:01.921Z,148.00
2018-04-19T04:34:01.748Z,164.00
2018-04-19T04:35:01.731Z,180.00
2018-04-19T04:36:01.619Z,192.00
2018-04-19T04:37:01.647Z,208.00
2018-04-19T04:38:01.441Z,220.00
2018-04-19T04:39:01.462Z,240.00
2018-04-19T04:40:01.307Z,256.00
2018-04-19T04:41:01.289Z,272.00
2018-04-19T04:42:01.127Z,288.00
2018-04-19T04:43:01.171Z,308.00
2018-04-19T04:44:00.977Z,328.00
2018-04-19T04:45:00.969Z,344.00
2018-04-19T04:46:00.827Z,364.00
2018-04-19T04:47:00.784Z,384.00
2018-04-19T04:48:00.655Z,400.00
2018-04-19T04:49:00.693Z,424.00
2018-04-19T04:50:00.543Z,444.00
2018-04-19T04:51:00.545Z,464.00
2018-04-19T04:52:00.347Z,484.00
2018-04-19T04:53:00.396Z,504.00
2018-04-19T04:54:00.211Z,524.00
2018-04-19T04:55:00.219Z,544.00
2018-04-19T04:56:00.038Z,564.00
2018-04-19T04:57:00.061Z,584.00
2018-04-19T04:57:59.874Z,604.00
2018-04-19T04:58:59.847Z,624.00
2018-04-19T04:59:59.728Z,644.00
2018-04-19T05:00:59.752Z,664.00
2018-04-19T05:01:59.592Z,680.00
2018-04-19T05:02:59.559Z,704.00
2018-04-19T05:03:59.417Z,720.00
2018-04-19T05:04:59.376Z,740.00
2018-04-19T05:05:59.253Z,760.00
2018-04-19T05:06:59.314Z,776.00
2018-04-19T05:07:59.112Z,796.00
2018-04-19T05:08:59.086Z,816.00
2018-04-19T05:09:58.935Z,836.00
2018-04-19T05:10:58.956Z,852.00
2018-04-19T05:11:58.781Z,872.00
2018-04-19T05:12:58.844Z,892.00
2018-04-19T05:13:58.636Z,908.00
2018-04-19T05:14:58.613Z,928.00
2018-04-19T05:15:58.482Z,944.00
2018-04-19T05:16:58.469Z,964.00
2018-04-19T05:17:58.333Z,980.00
2018-04-19T05:18:58.364Z,996.00
2018-04-19T05:19:58.155Z,1008.00
2018-04-19T05:20:58.142Z,1028.00
2018-04-19T05:21:57.990Z,1044.00
2018-04-19T05:22:57.992Z,1060.00
2018-04-19T05:23:57.841Z,1080.00
2018-04-19T05:24:57.861Z,1100.00
2018-04-19T05:25:57.687Z,1116.00
2018-04-19T05:26:57.679Z,1136.00
2018-04-19T05:27:57.557Z,1156.00
2018-04-19T05:28:57.577Z,1172.00
2018-04-19T05:29:57.378Z,1188.00
2018-04-19T05:30:57.395Z,1204.00
2018-04-19T05:31:57.231Z,1220.00
2018-04-19T05:32:57.246Z,1236.00
2018-04-19T05:33:57.071Z,1252.00
2018-04-19T05:34:57.226Z,1268.00
2018-04-19T05:35:56.897Z,1288.00
2018-04-19T05:36:56.934Z,1300.00
2018-04-19T05:37:56.742Z,1320.00
2018-04-19T05:38:56.764Z,1336.00
2018-04-19T05:39:56.592Z,1352.00
2018-04-19T05:40:56.665Z,1364.00
2018-04-19T05:41:56.429Z,1376.00
2018-04-19T05:42:56.455Z,1392.00
2018-04-19T05:43:56.291Z,1408.00
2018-04-19T05:44:56.262Z,1416.00
2018-04-19T05:45:56.132Z,1432.00
2018-04-19T05:46:56.590Z,1444.00
2018-04-19T05:47:55.976Z,1460.00
2018-04-19T05:48:56.619Z,1472.00
2018-04-19T05:49:55.799Z,1480.00
2018-04-19T05:50:55.785Z,1496.00
2018-04-19T05:51:55.660Z,1508.00
2018-04-19T05:52:55.694Z,1520.00
2018-04-19T05:53:55.528Z,1536.00
2018-04-19T05:54:55.534Z,1548.00
2018-04-19T05:55:55.380Z,1568.00
2018-04-19T05:56:55.305Z,1592.00
2018-04-19T05:57:55.180Z,1668.00
2018-04-19T05:58:55.147Z,1808.00
2018-04-19T05:59:55.044Z,2008.00
2018-04-19T06:00:55.061Z,2256.00
2018-04-19T06:01:54.867Z,2552.00
2018-04-19T06:02:54.857Z,2864.00
2018-04-19T06:03:54.701Z,3176.00
2018-04-19T06:04:54.758Z,3484.00
2018-04-19T06:05:54.567Z,3804.00
2018-04-19T06:06:54.552Z,4136.00
2018-04-19T06:07:54.392Z,4456.00
2018-04-19T06:08:54.423Z,4736.00
2018-04-19T06:09:54.234Z,4924.00
2018-04-19T06:10:54.282Z,5388.00
2018-04-19T06:11:54.118Z,6112.00
2018-04-19T06:12:54.104Z,6696.00
2018-04-19T06:13:53.922Z,6840.00
2018-04-19T06:14:53.894Z,6920.00
2018-04-19T06:15:53.779Z,6992.00
2018-04-19T06:16:53.841Z,7072.00
2018-04-19T06:17:53.630Z,7136.00
2018-04-19T06:18:53.616Z,7204.00
2018-04-19T06:19:53.468Z,7268.00
2018-04-19T06:20:53.518Z,7344.00
2018-04-19T06:21:53.328Z,7408.00
2018-04-19T06:22:53.326Z,7480.00
2018-04-19T06:23:53.174Z,7540.00
2018-04-19T06:24:53.192Z,7612.00
2018-04-19T06:25:53.001Z,7676.00
2018-04-19T06:26:53.093Z,7748.00
2018-04-19T06:27:52.893Z,7816.00
2018-04-19T06:28:52.859Z,7868.00
2018-04-19T06:29:52.698Z,7924.00
2018-04-19T06:30:52.808Z,8016.00
2018-04-19T06:31:52.565Z,8092.00
2018-04-19T06:32:52.582Z,8148.00
2018-04-19T06:33:52.400Z,8208.00
2018-04-19T06:34:52.374Z,8208.00
2018-04-19T06:35:52.251Z,8344.00
2018-04-19T06:36:52.229Z,8440.00
2018-04-19T06:37:52.156Z,8488.00
2018-04-19T06:38:52.110Z,8560.00
2018-04-19T06:39:51.949Z,8620.00
2018-04-19T06:40:51.921Z,8692.00
2018-04-19T06:41:51.801Z,8764.00
2018-04-19T06:42:51.862Z,8844.00
2018-04-19T06:43:51.693Z,8916.00
2018-04-19T06:44:51.636Z,9004.00
2018-04-19T06:45:51.513Z,9072.00
2018-04-19T06:46:51.545Z,9144.00
2018-04-19T06:47:51.389Z,9204.00
2018-04-19T06:48:51.353Z,9292.00
2018-04-19T06:49:51.221Z,9376.00
2018-04-19T06:50:51.303Z,9448.00
2018-04-19T06:51:51.076Z,9556.00
2018-04-19T06:52:51.103Z,9612.00
2018-04-19T06:53:50.933Z,9684.00
2018-04-19T06:54:50.983Z,9776.00
2018-04-19T06:55:50.785Z,9828.00
2018-04-19T06:56:50.786Z,9888.00
2018-04-19T06:57:50.678Z,9936.00
2018-04-19T06:58:50.699Z,10008.00
2018-04-19T06:59:50.501Z,10048.00
2018-04-19T07:00:50.523Z,10080.00
2018-04-19T07:01:50.354Z,10144.00
2018-04-19T07:02:50.411Z,10200.00
2018-04-19T07:03:50.239Z,10316.00
2018-04-19T07:04:50.244Z,10496.00
2018-04-19T07:05:50.077Z,10660.00
2018-04-19T07:06:50.033Z,10828.00
2018-04-19T07:07:49.928Z,11012.00
2018-04-19T07:08:49.987Z,11228.00
2018-04-19T07:09:49.788Z,11380.00
2018-04-19T07:10:49.774Z,11448.00
2018-04-19T07:11:49.656Z,11572.00
2018-04-19T07:12:49.761Z,11556.00
2018-04-19T07:13:49.527Z,11572.00
2018-04-19T07:14:49.470Z,11612.00
2018-04-19T07:15:49.476Z,11640.00
2018-04-19T07:16:49.387Z,11640.00
2018-04-19T07:17:49.221Z,11732.00
2018-04-19T07:18:49.336Z,11800.00
2018-04-19T07:19:49.068Z,11720.00
2018-04-19T07:20:49.103Z,11708.00
2018-04-19T07:21:48.925Z,11792.00
2018-04-19T07:22:48.909Z,11912.00
2018-04-19T07:23:48.818Z,12132.00
2018-04-19T07:24:48.854Z,12228.00
2018-04-19T07:25:48.674Z,12376.00
2018-04-19T07:26:48.643Z,12576.00
2018-04-19T07:27:48.504Z,12876.00
2018-04-19T07:28:48.570Z,13128.00
2018-04-19T07:29:48.401Z,13368.00
2018-04-19T07:30:48.357Z,13472.00
2018-04-19T07:31:48.233Z,13480.00
2018-04-19T07:32:48.259Z,13352.00
2018-04-19T07:33:48.079Z,13224.00
2018-04-19T07:34:48.137Z,13228.00
2018-04-19T07:35:47.951Z,13412.00
2018-04-19T07:36:47.980Z,13620.00
2018-04-19T07:37:47.810Z,13776.00
2018-04-19T07:38:47.859Z,13828.00
2018-04-19T07:39:47.698Z,13740.00
2018-04-19T07:40:47.741Z,13756.00
2018-04-19T07:41:47.534Z,14036.00
2018-04-19T07:42:47.510Z,14572.00
2018-04-19T07:43:47.413Z,15188.00
2018-04-19T07:44:47.458Z,16128.00
2018-04-19T07:45:47.264Z,16864.00
2018-04-19T07:48:29.135Z,20128.00
2018-04-19T07:49:29.171Z,21120.00
2018-04-19T07:50:28.999Z,22176.00
2018-04-19T07:51:29.090Z,21664.00
2018-04-19T07:52:28.850Z,20480.00
2018-04-19T07:53:28.846Z,18752.00
2018-04-19T07:54:28.841Z,16320.00
2018-04-19T07:55:28.757Z,13992.00
2018-04-19T07:56:28.605Z,12908.00
2018-04-19T07:57:28.585Z,12520.00
2018-04-19T07:58:28.465Z,12372.00
2018-04-19T07:59:28.482Z,12380.00
2018-04-19T08:00:28.318Z,12432.00
2018-04-19T08:01:28.383Z,12320.00
2018-04-19T08:02:28.191Z,12408.00
2018-04-19T08:03:28.187Z,12420.00
2018-04-19T08:04:28.126Z,12388.00
2018-04-19T08:05:29.106Z,12404.00
2018-04-19T08:06:27.900Z,12400.00
2018-04-19T08:07:27.934Z,12324.00
2018-04-19T08:08:27.817Z,12368.00
2018-04-19T08:09:27.819Z,12476.00
2018-04-19T08:10:27.637Z,12420.00
2018-04-19T08:11:27.646Z,12444.00
2018-04-19T08:12:27.496Z,12400.00
2018-04-19T08:13:27.473Z,12412.00
2018-04-19T08:14:27.364Z,12460.00
2018-04-19T08:15:27.353Z,12436.00
2018-04-19T08:16:27.252Z,12492.00
2018-04-19T08:17:27.208Z,12528.00
2018-04-19T08:18:27.068Z,12556.00
2018-04-19T08:19:27.060Z,12544.00
2018-04-19T08:20:26.955Z,12564.00
2018-04-19T08:21:26.975Z,12576.00
2018-04-19T08:22:26.842Z,12584.00
2018-04-19T08:23:26.804Z,12592.00
2018-04-19T08:24:26.676Z,12632.00
2018-04-19T08:25:26.700Z,12644.00
2018-04-19T08:26:26.525Z,12720.00
2018-04-19T08:27:26.523Z,12716.00
2018-04-19T08:28:26.434Z,12744.00
2018-04-19T08:29:26.422Z,12772.00
2018-04-19T08:30:26.261Z,12828.00
2018-04-19T08:31:26.325Z,12880.00
2018-04-19T08:32:26.127Z,12928.00
2018-04-19T08:33:26.185Z,12968.00
2018-04-19T08:34:25.985Z,13024.00
2018-04-19T08:35:26.066Z,13064.00
2018-04-19T08:36:25.856Z,13076.00
2018-04-19T08:37:25.852Z,13096.00
2018-04-19T08:38:25.746Z,13128.00
2018-04-19T08:39:25.764Z,13112.00
2018-04-19T08:40:25.583Z,13060.00
2018-04-19T08:41:25.571Z,13040.00
2018-04-19T08:42:25.460Z,13016.00
2018-04-19T08:43:25.541Z,12996.00
2018-04-19T08:44:25.316Z,12952.00
2018-04-19T08:45:25.301Z,12812.00
2018-04-19T08:46:25.186Z,12876.00
2018-04-19T08:47:25.214Z,12924.00
2018-04-19T08:48:25.061Z,12884.00
2018-04-19T08:49:25.040Z,12868.00
2018-04-19T08:50:24.907Z,12896.00
2018-04-19T08:51:24.935Z,12876.00
2018-04-19T08:52:24.790Z,12888.00
2018-04-19T08:53:24.833Z,12880.00
2018-04-19T08:54:24.670Z,12892.00
2018-04-19T08:55:24.648Z,12832.00
2018-04-19T08:56:24.525Z,12876.00
2018-04-19T08:57:24.461Z,12864.00
2018-04-19T08:58:24.395Z,12932.00
2018-04-19T08:59:24.406Z,12952.00
2018-04-19T09:00:24.258Z,12960.00
2018-04-19T09:01:24.268Z,12928.00
2018-04-19T09:02:24.136Z,12916.00
2018-04-19T09:03:24.189Z,12788.00
2018-04-19T09:04:24.127Z,12868.00
2018-04-19T09:05:24.032Z,12832.00
2018-04-19T09:06:23.852Z,12900.00
2018-04-19T09:07:23.877Z,12812.00
2018-04-19T09:08:23.724Z,12860.00
2018-04-19T09:09:23.756Z,12908.00
2018-04-19T09:10:23.581Z,13004.00
2018-04-19T09:11:23.617Z,13028.00
2018-04-19T09:12:23.446Z,13080.00
2018-04-19T09:13:23.432Z,13112.00
2018-04-19T09:14:23.360Z,13120.00
2018-04-19T09:15:23.339Z,13112.00
2018-04-19T09:16:23.193Z,13188.00
2018-04-19T09:17:23.257Z,13216.00
2018-04-19T09:18:23.058Z,13236.00
2018-04-19T09:19:23.097Z,13184.00
2018-04-19T09:20:22.966Z,13312.00
2018-04-19T09:21:22.964Z,13344.00
2018-04-19T09:22:22.829Z,13396.00
2018-04-19T09:23:22.793Z,13420.00
2018-04-19T09:24:22.694Z,13436.00
2018-04-19T09:25:22.724Z,13520.00
2018-04-19T09:26:22.581Z,13552.00
2018-04-19T09:27:22.498Z,13584.00
2018-04-19T09:28:22.419Z,13632.00
2018-04-19T09:29:22.409Z,13648.00
2018-04-19T09:30:22.297Z,13772.00
2018-04-19T09:31:22.218Z,13932.00
2018-04-19T09:32:22.129Z,13988.00
2018-04-19T09:33:22.128Z,14028.00
2018-04-19T09:34:22.020Z,14036.00
2018-04-19T09:35:22.161Z,14220.00
2018-04-19T09:36:21.881Z,14384.00
2018-04-19T09:37:21.850Z,14560.00
2018-04-19T09:38:21.754Z,14644.00
2018-04-19T09:39:21.797Z,14768.00
2018-04-19T09:40:21.648Z,14784.00
2018-04-19T09:41:21.674Z,14820.00
2018-04-19T09:42:21.599Z,15168.00
2018-04-19T09:43:21.505Z,15136.00
2018-04-19T09:44:21.359Z,15136.00
2018-04-19T09:45:21.426Z,15104.00
2018-04-19T09:46:21.236Z,15072.00
2018-04-19T09:47:21.628Z,15072.00
2018-04-19T09:48:21.110Z,15264.00
2018-04-19T09:49:21.385Z,15488.00
2018-04-19T09:50:20.986Z,15520.00
2018-04-19T09:51:21.081Z,15552.00
2018-04-19T09:52:20.845Z,15584.00
2018-04-19T09:53:20.836Z,15648.00
2018-04-19T09:54:20.734Z,15712.00
2018-04-19T09:55:20.755Z,15840.00
2018-04-19T09:56:20.762Z,15936.00
2018-04-19T09:57:20.643Z,16032.00
2018-04-19T09:58:20.471Z,16192.00
2018-04-19T09:59:20.416Z,16512.00
2018-04-19T10:00:20.349Z,16608.00
2018-04-19T10:01:20.298Z,16800.00
2018-04-19T10:02:20.250Z,16896.00
2018-04-19T10:03:20.176Z,17024.00
2018-04-19T10:04:20.091Z,17152.00
2018-04-19T10:05:20.191Z,17248.00
2018-04-19T10:06:20.005Z,17376.00
2018-04-19T10:07:20.003Z,17408.00
2018-04-19T10:08:19.829Z,17504.00
2018-04-19T10:09:19.804Z,17504.00
2018-04-19T10:10:19.694Z,17472.00
2018-04-19T10:13:01.750Z,17824.00
2018-04-19T10:14:01.863Z,18112.00
2018-04-19T10:15:01.575Z,18368.00
2018-04-19T10:16:02.029Z,18560.00
2018-04-19T10:17:01.482Z,18816.00
2018-04-19T10:18:01.479Z,19040.00
2018-04-19T10:19:02.035Z,19296.00
2018-04-19T10:20:01.361Z,19296.00
2018-04-19T10:21:01.219Z,19488.00
2018-04-19T10:22:01.193Z,19712.00
2018-04-19T10:23:01.152Z,19904.00
2018-04-19T10:24:01.200Z,19968.00
2018-04-19T10:25:01.175Z,20128.00
2018-04-19T10:26:01.282Z,20320.00
2018-04-19T10:28:42.946Z,20960.00
2018-04-19T10:29:43.117Z,21408.00
2018-04-19T10:30:42.584Z,21504.00
2018-04-19T10:31:42.697Z,21696.00
2018-04-19T10:32:42.586Z,21952.00
2018-04-19T10:33:42.380Z,22368.00
2018-04-19T10:34:42.512Z,22432.00
2018-04-19T10:35:42.267Z,22656.00
2018-04-19T10:36:42.993Z,22944.00
2018-04-19T10:37:42.157Z,23264.00
2018-04-19T10:38:42.113Z,23904.00
2018-04-19T10:39:42.021Z,31840.00
2018-04-19T10:40:42.037Z,64000.00
2018-04-19T10:41:41.886Z,105888.00
2018-04-19T10:42:41.935Z,137984.00
2018-04-19T10:43:41.756Z,140672.00
2018-04-19T10:44:41.784Z,129888.00
2018-04-19T10:45:41.661Z,121504.00
2018-04-19T10:46:41.566Z,116512.00
2018-04-19T10:47:41.518Z,115456.00
2018-04-19T10:48:41.500Z,113792.00
2018-04-19T10:49:41.373Z,111808.00
2018-04-19T10:50:41.324Z,111296.00
2018-04-19T10:51:41.332Z,106304.00
2018-04-19T10:52:41.393Z,103776.00
2018-04-19T10:53:41.137Z,97536.00
2018-04-19T10:54:41.218Z,94656.00
2018-04-19T10:55:40.995Z,89600.00
2018-04-19T10:56:41.023Z,89952.00
2018-04-19T10:57:40.969Z,92128.00
2018-04-19T10:58:40.820Z,96096.00
2018-04-19T10:59:40.758Z,95136.00
2018-04-19T11:00:40.740Z,92000.00
2018-04-19T11:01:40.614Z,98176.00
2018-04-19T11:02:40.673Z,97088.00
2018-04-19T11:03:40.639Z,100992.00
2018-04-19T11:04:40.445Z,105312.00
2018-04-19T11:05:40.358Z,106496.00
2018-04-19T11:06:40.318Z,104096.00
2018-04-19T11:07:40.241Z,104928.00
2018-04-19T11:08:40.401Z,101952.00
2018-04-19T11:09:40.117Z,102368.00
2018-04-19T11:10:40.099Z,101728.00
2018-04-19T11:11:40.017Z,100736.00
2018-04-19T11:12:39.931Z,100576.00
2018-04-19T11:13:39.882Z,100352.00
2018-04-19T11:14:39.906Z,100736.00
2018-04-19T11:15:39.754Z,101536.00
2018-04-19T11:16:39.724Z,99520.00
2018-04-19T11:17:39.673Z,99872.00
2018-04-19T11:18:39.599Z,100992.00
2018-04-19T11:19:39.486Z,101600.00
2018-04-19T11:20:39.528Z,103776.00
2018-04-19T11:21:39.364Z,106304.00
2018-04-19T11:22:39.335Z,109472.00
2018-04-19T11:23:39.236Z,111296.00
2018-04-19T11:24:39.290Z,108928.00
2018-04-19T11:25:39.119Z,108256.00
2018-04-19T11:26:39.167Z,104704.00
2018-04-19T11:27:38.993Z,102464.00
2018-04-19T11:28:39.015Z,103200.00
2018-04-19T11:29:38.885Z,104000.00
2018-04-19T11:30:38.883Z,106336.00
2018-04-19T11:31:38.735Z,103904.00
2018-04-19T11:32:38.685Z,101440.00
2018-04-19T11:33:38.739Z,95520.00
2018-04-19T11:34:38.628Z,93888.00
2018-04-19T11:35:38.483Z,94112.00
2018-04-19T11:36:38.504Z,97120.00
2018-04-19T11:37:38.379Z,100480.00
2018-04-19T11:38:38.413Z,104896.00
2018-04-19T11:39:38.374Z,103968.00
2018-04-19T11:40:38.188Z,107136.00
2018-04-19T11:41:38.130Z,106816.00
2018-04-19T11:42:38.104Z,105408.00
2018-04-19T11:43:37.988Z,104288.00
2018-04-19T11:44:38.057Z,106496.00
2018-04-19T11:45:37.898Z,108224.00
2018-04-19T11:46:37.855Z,108800.00
2018-04-19T11:47:37.796Z,108256.00
2018-04-19T11:48:37.774Z,110240.00
2018-04-19T11:49:37.657Z,108224.00
2018-04-19T11:50:37.674Z,107584.00
2018-04-19T11:51:37.503Z,109792.00
2018-04-19T11:52:37.896Z,109664.00
2018-04-19T11:53:37.420Z,109024.00
2018-04-19T11:54:37.404Z,105888.00
2018-04-19T11:55:37.263Z,102880.00
2018-04-19T11:56:37.225Z,106176.00
2018-04-19T11:57:37.135Z,105504.00
2018-04-19T11:58:37.108Z,105760.00
2018-04-19T11:59:37.077Z,104736.00
2018-04-19T12:00:36.975Z,91104.00
2018-04-19T12:01:36.879Z,38624.00
2018-04-19T12:02:36.843Z,7116.00
2018-04-19T12:03:36.819Z,4872.00
2018-04-19T12:04:36.742Z,4708.00
2018-04-19T12:05:36.636Z,4600.00
2018-04-19T12:06:36.698Z,4536.00
2018-04-19T12:07:36.523Z,4460.00
2018-04-19T12:08:36.476Z,4372.00
2018-04-19T12:09:36.389Z,4316.00
2018-04-19T12:10:36.344Z,4236.00
2018-04-19T12:11:36.279Z,4180.00
2018-04-19T12:12:36.183Z,4144.00
2018-04-19T12:13:36.151Z,4116.00
2018-04-19T12:14:36.142Z,4120.00
2018-04-19T12:15:36.024Z,4100.00
2018-04-19T12:16:36.027Z,4060.00
2018-04-19T12:17:35.864Z,4008.00
2018-04-19T12:18:35.816Z,4012.00
2018-04-19T12:19:36.141Z,3984.00
2018-04-19T12:20:35.781Z,3944.00
2018-04-19T12:21:35.587Z,3892.00
2018-04-19T12:24:17.738Z,3756.00
2018-04-19T12:25:17.792Z,3736.00
2018-04-19T12:26:17.608Z,3712.00
2018-04-19T12:27:17.588Z,3728.00
2018-04-19T12:28:17.464Z,3720.00
2018-04-19T12:29:17.498Z,3720.00